sensor_id;sensor_type;location;lat;lon;timestamp;temperature;humidity
18611;DHT22;9435;52.122;5.502;2022-08-19T00:01:51;17.70;99.90
18611;DHT22;9435;52.122;5.502;2022-08-19T00:04:20;17.60;99.90
18611;DHT22;9435;52.122;5.502;2022-08-19T00:06:47;17.60;99.90
18611;DHT22;9435;52.122;5.502;2022-08-19T00:09:16;17.60;99.90
18611;DHT22;9435;52.122;5.502;2022-08-19T00:11:44;17.60;99.90
18611;DHT22;9435;52.122;5.502;2022-08-19T00:14:14;17.50;99.90
18611;DHT22;9435;52.122;5.502;2022-08-19T00:16:44;17.40;99.90
18611;DHT22;9435;52.122;5.502;2022-08-19T00:19:11;17.40;99.90
18611;DHT22;9435;52.122;5.502;2022-08-19T00:21:38;17.40;99.90
18611;DHT22;9435;52.122;5.502;2022-08-19T00:24:06;17.40;99.90
18611;DHT22;9435;52.122;5.502;2022-08-19T00:26:33;17.40;99.90
18611;DHT22;9435;52.122;5.502;2022-08-19T00:29:01;17.40;99.90
18611;DHT22;9435;52.122;5.502;2022-08-19T00:31:30;17.40;99.90
18611;DHT22;9435;52.122;5.502;2022-08-19T00:33:57;17.40;99.90
18611;DHT22;9435;52.122;5.502;2022-08-19T00:36:24;17.30;99.90
18611;DHT22;9435;52.122;5.502;2022-08-19T00:38:51;17.30;99.90
18611;DHT22;9435;52.122;5.502;2022-08-19T00:41:20;17.30;99.90
18611;DHT22;9435;52.122;5.502;2022-08-19T00:43:58;17.20;99.90
18611;DHT22;9435;52.122;5.502;2022-08-19T00:46:25;17.20;99.90
18611;DHT22;9435;52.122;5.502;2022-08-19T00:48:54;17.10;99.90
18611;DHT22;9435;52.122;5.502;2022-08-19T00:51:22;17.10;99.90
18611;DHT22;9435;52.122;5.502;2022-08-19T00:53:50;17.20;99.90
18611;DHT22;9435;52.122;5.502;2022-08-19T00:56:17;17.20;99.90
18611;DHT22;9435;52.122;5.502;2022-08-19T00:58:44;17.10;99.90
18611;DHT22;9435;52.122;5.502;2022-08-19T01:01:11;17.10;99.90
18611;DHT22;9435;52.122;5.502;2022-08-19T01:03:39;17.00;99.90
18611;DHT22;9435;52.122;5.502;2022-08-19T01:06:08;17.00;99.90
18611;DHT22;9435;52.122;5.502;2022-08-19T01:08:35;17.10;99.90
18611;DHT22;9435;52.122;5.502;2022-08-19T01:11:02;17.10;99.90
18611;DHT22;9435;52.122;5.502;2022-08-19T01:13:32;17.00;99.90
18611;DHT22;9435;52.122;5.502;2022-08-19T01:16:02;17.00;99.90
18611;DHT22;9435;52.122;5.502;2022-08-19T01:18:31;17.00;99.90
18611;DHT22;9435;52.122;5.502;2022-08-19T01:21:02;17.00;99.90
18611;DHT22;9435;52.122;5.502;2022-08-19T01:23:31;17.00;99.90
18611;DHT22;9435;52.122;5.502;2022-08-19T01:26:11;16.90;99.90
18611;DHT22;9435;52.122;5.502;2022-08-19T01:28:39;17.00;99.90
18611;DHT22;9435;52.122;5.502;2022-08-19T01:31:06;16.90;99.90
18611;DHT22;9435;52.122;5.502;2022-08-19T01:33:37;16.80;99.90
18611;DHT22;9435;52.122;5.502;2022-08-19T01:36:07;16.90;99.90
18611;DHT22;9435;52.122;5.502;2022-08-19T01:38:37;16.80;99.90
18611;DHT22;9435;52.122;5.502;2022-08-19T01:41:04;16.80;99.90
18611;DHT22;9435;52.122;5.502;2022-08-19T01:43:32;16.80;99.90
18611;DHT22;9435;52.122;5.502;2022-08-19T01:45:59;16.80;99.90
18611;DHT22;9435;52.122;5.502;2022-08-19T01:48:26;16.80;99.90
18611;DHT22;9435;52.122;5.502;2022-08-19T01:50:54;16.80;99.90
18611;DHT22;9435;52.122;5.502;2022-08-19T01:53:22;16.80;99.90
18611;DHT22;9435;52.122;5.502;2022-08-19T01:55:50;16.70;99.90
18611;DHT22;9435;52.122;5.502;2022-08-19T01:58:20;16.70;99.90
18611;DHT22;9435;52.122;5.502;2022-08-19T02:00:47;16.70;99.90
18611;DHT22;9435;52.122;5.502;2022-08-19T02:03:15;16.70;99.90
18611;DHT22;9435;52.122;5.502;2022-08-19T02:05:43;16.60;99.90
18611;DHT22;9435;52.122;5.502;2022-08-19T02:08:12;16.60;99.90
18611;DHT22;9435;52.122;5.502;2022-08-19T02:10:40;16.60;99.90
18611;DHT22;9435;52.122;5.502;2022-08-19T02:13:10;16.60;99.90
18611;DHT22;9435;52.122;5.502;2022-08-19T02:15:37;16.50;99.90
18611;DHT22;9435;52.122;5.502;2022-08-19T02:18:04;16.50;99.90
18611;DHT22;9435;52.122;5.502;2022-08-19T02:20:33;16.40;99.90
18611;DHT22;9435;52.122;5.502;2022-08-19T02:23:01;16.40;99.90
18611;DHT22;9435;52.122;5.502;2022-08-19T02:25:28;16.40;99.90
18611;DHT22;9435;52.122;5.502;2022-08-19T02:27:55;16.40;99.90
18611;DHT22;9435;52.122;5.502;2022-08-19T02:30:24;16.40;99.90
18611;DHT22;9435;52.122;5.502;2022-08-19T02:32:51;16.40;99.90
18611;DHT22;9435;52.122;5.502;2022-08-19T02:35:19;16.40;99.90
18611;DHT22;9435;52.122;5.502;2022-08-19T02:37:46;16.30;99.90
18611;DHT22;9435;52.122;5.502;2022-08-19T02:40:31;16.30;99.90
18611;DHT22;9435;52.122;5.502;2022-08-19T02:43:00;16.30;99.90
18611;DHT22;9435;52.122;5.502;2022-08-19T02:45:31;16.30;99.90
18611;DHT22;9435;52.122;5.502;2022-08-19T02:47:58;16.30;99.90
18611;DHT22;9435;52.122;5.502;2022-08-19T02:50:25;16.30;99.90
18611;DHT22;9435;52.122;5.502;2022-08-19T02:52:52;16.30;99.90
18611;DHT22;9435;52.122;5.502;2022-08-19T02:55:19;16.30;99.90
18611;DHT22;9435;52.122;5.502;2022-08-19T02:57:46;16.30;99.90
18611;DHT22;9435;52.122;5.502;2022-08-19T03:00:14;16.30;99.90
18611;DHT22;9435;52.122;5.502;2022-08-19T03:02:43;16.20;99.90
18611;DHT22;9435;52.122;5.502;2022-08-19T03:05:10;16.20;99.90
18611;DHT22;9435;52.122;5.502;2022-08-19T03:07:37;16.20;99.90
18611;DHT22;9435;52.122;5.502;2022-08-19T03:10:05;16.20;99.90
18611;DHT22;9435;52.122;5.502;2022-08-19T03:12:35;16.10;99.90
18611;DHT22;9435;52.122;5.502;2022-08-19T03:15:04;16.20;99.90
18611;DHT22;9435;52.122;5.502;2022-08-19T03:17:31;16.10;99.90
18611;DHT22;9435;52.122;5.502;2022-08-19T03:20:00;16.00;99.90
18611;DHT22;9435;52.122;5.502;2022-08-19T03:22:27;16.10;99.90
18611;DHT22;9435;52.122;5.502;2022-08-19T03:24:55;16.00;99.90
18611;DHT22;9435;52.122;5.502;2022-08-19T03:27:22;16.00;99.90
18611;DHT22;9435;52.122;5.502;2022-08-19T03:29:49;16.00;99.90
18611;DHT22;9435;52.122;5.502;2022-08-19T03:32:17;15.90;99.90
18611;DHT22;9435;52.122;5.502;2022-08-19T03:34:43;15.90;99.90
18611;DHT22;9435;52.122;5.502;2022-08-19T03:37:12;15.90;99.90
18611;DHT22;9435;52.122;5.502;2022-08-19T03:39:40;15.90;99.90
18611;DHT22;9435;52.122;5.502;2022-08-19T03:42:08;15.80;99.90
18611;DHT22;9435;52.122;5.502;2022-08-19T03:44:35;15.80;99.90
18611;DHT22;9435;52.122;5.502;2022-08-19T03:47:04;15.80;99.90
18611;DHT22;9435;52.122;5.502;2022-08-19T03:49:32;15.80;99.90
18611;DHT22;9435;52.122;5.502;2022-08-19T03:52:00;15.80;99.90
18611;DHT22;9435;52.122;5.502;2022-08-19T03:54:29;15.80;99.90
18611;DHT22;9435;52.122;5.502;2022-08-19T03:56:56;15.80;99.90
18611;DHT22;9435;52.122;5.502;2022-08-19T03:59:26;15.80;99.90
18611;DHT22;9435;52.122;5.502;2022-08-19T04:01:55;15.80;99.90
18611;DHT22;9435;52.122;5.502;2022-08-19T04:04:23;15.80;99.90
18611;DHT22;9435;52.122;5.502;2022-08-19T04:06:50;15.70;99.90
18611;DHT22;9435;52.122;5.502;2022-08-19T04:09:18;15.70;99.90
18611;DHT22;9435;52.122;5.502;2022-08-19T04:11:49;15.60;99.90
18611;DHT22;9435;52.122;5.502;2022-08-19T04:14:19;15.60;99.90
18611;DHT22;9435;52.122;5.502;2022-08-19T04:16:47;15.50;99.90
18611;DHT22;9435;52.122;5.502;2022-08-19T04:19:16;15.50;99.90
18611;DHT22;9435;52.122;5.502;2022-08-19T04:21:45;15.50;99.90
18611;DHT22;9435;52.122;5.502;2022-08-19T04:24:13;15.50;99.90
18611;DHT22;9435;52.122;5.502;2022-08-19T04:26:40;15.50;99.90
18611;DHT22;9435;52.122;5.502;2022-08-19T04:29:11;15.50;99.90
18611;DHT22;9435;52.122;5.502;2022-08-19T04:31:39;15.50;99.90
18611;DHT22;9435;52.122;5.502;2022-08-19T04:34:08;15.40;99.90
18611;DHT22;9435;52.122;5.502;2022-08-19T04:36:37;15.50;99.90
18611;DHT22;9435;52.122;5.502;2022-08-19T04:39:07;15.50;99.90
18611;DHT22;9435;52.122;5.502;2022-08-19T04:41:34;15.50;99.90
18611;DHT22;9435;52.122;5.502;2022-08-19T04:44:21;15.50;99.90
18611;DHT22;9435;52.122;5.502;2022-08-19T04:46:49;15.50;99.90
18611;DHT22;9435;52.122;5.502;2022-08-19T04:49:18;15.50;99.90
18611;DHT22;9435;52.122;5.502;2022-08-19T04:51:46;15.40;99.90
18611;DHT22;9435;52.122;5.502;2022-08-19T04:54:15;15.40;99.90
18611;DHT22;9435;52.122;5.502;2022-08-19T04:56:42;15.40;99.90
18611;DHT22;9435;52.122;5.502;2022-08-19T04:59:09;15.40;99.90
18611;DHT22;9435;52.122;5.502;2022-08-19T05:01:38;15.30;99.90
18611;DHT22;9435;52.122;5.502;2022-08-19T05:04:06;15.30;99.90
18611;DHT22;9435;52.122;5.502;2022-08-19T05:06:34;15.30;99.90
18611;DHT22;9435;52.122;5.502;2022-08-19T05:09:02;15.30;99.90
18611;DHT22;9435;52.122;5.502;2022-08-19T05:11:31;15.40;99.90
18611;DHT22;9435;52.122;5.502;2022-08-19T05:13:59;15.40;99.90
18611;DHT22;9435;52.122;5.502;2022-08-19T05:16:26;15.40;99.90
18611;DHT22;9435;52.122;5.502;2022-08-19T05:18:55;15.50;99.90
18611;DHT22;9435;52.122;5.502;2022-08-19T05:21:43;15.50;99.90
18611;DHT22;9435;52.122;5.502;2022-08-19T05:24:28;15.60;99.90
18611;DHT22;9435;52.122;5.502;2022-08-19T05:26:56;15.60;99.90
18611;DHT22;9435;52.122;5.502;2022-08-19T05:29:25;15.60;99.90
18611;DHT22;9435;52.122;5.502;2022-08-19T05:31:53;15.60;99.90
18611;DHT22;9435;52.122;5.502;2022-08-19T05:34:23;15.70;99.90
18611;DHT22;9435;52.122;5.502;2022-08-19T05:36:52;15.70;99.90
18611;DHT22;9435;52.122;5.502;2022-08-19T05:39:25;15.70;99.90
18611;DHT22;9435;52.122;5.502;2022-08-19T05:41:54;15.70;99.90
18611;DHT22;9435;52.122;5.502;2022-08-19T05:44:23;15.80;99.90
18611;DHT22;9435;52.122;5.502;2022-08-19T05:46:51;15.80;99.90
18611;DHT22;9435;52.122;5.502;2022-08-19T05:49:22;15.90;99.90
18611;DHT22;9435;52.122;5.502;2022-08-19T05:51:51;16.00;99.90
18611;DHT22;9435;52.122;5.502;2022-08-19T05:54:19;16.10;99.90
18611;DHT22;9435;52.122;5.502;2022-08-19T05:56:46;16.10;99.90
18611;DHT22;9435;52.122;5.502;2022-08-19T05:59:16;16.30;99.90
18611;DHT22;9435;52.122;5.502;2022-08-19T06:01:45;16.40;99.90
18611;DHT22;9435;52.122;5.502;2022-08-19T06:04:16;16.50;99.90
18611;DHT22;9435;52.122;5.502;2022-08-19T06:06:45;16.70;99.90
18611;DHT22;9435;52.122;5.502;2022-08-19T06:09:12;16.70;99.90
18611;DHT22;9435;52.122;5.502;2022-08-19T06:11:42;16.90;99.90
18611;DHT22;9435;52.122;5.502;2022-08-19T06:14:13;17.00;99.90
18611;DHT22;9435;52.122;5.502;2022-08-19T06:16:41;17.20;99.90
18611;DHT22;9435;52.122;5.502;2022-08-19T06:19:10;17.20;99.90
18611;DHT22;9435;52.122;5.502;2022-08-19T06:21:39;17.30;99.90
18611;DHT22;9435;52.122;5.502;2022-08-19T06:24:09;17.40;99.90
18611;DHT22;9435;52.122;5.502;2022-08-19T06:26:38;17.60;99.90
18611;DHT22;9435;52.122;5.502;2022-08-19T06:29:07;17.70;99.90
18611;DHT22;9435;52.122;5.502;2022-08-19T06:31:35;17.90;99.90
18611;DHT22;9435;52.122;5.502;2022-08-19T06:34:05;18.20;99.90
18611;DHT22;9435;52.122;5.502;2022-08-19T06:36:34;18.40;99.90
18611;DHT22;9435;52.122;5.502;2022-08-19T06:39:03;18.50;99.90
18611;DHT22;9435;52.122;5.502;2022-08-19T06:41:35;18.70;99.90
18611;DHT22;9435;52.122;5.502;2022-08-19T06:44:03;18.80;99.90
18611;DHT22;9435;52.122;5.502;2022-08-19T06:46:31;19.00;99.90
18611;DHT22;9435;52.122;5.502;2022-08-19T06:48:58;19.10;99.90
18611;DHT22;9435;52.122;5.502;2022-08-19T06:51:26;19.20;99.90
18611;DHT22;9435;52.122;5.502;2022-08-19T06:53:54;19.30;99.90
18611;DHT22;9435;52.122;5.502;2022-08-19T06:56:24;19.40;99.90
18611;DHT22;9435;52.122;5.502;2022-08-19T06:58:57;19.40;99.90
18611;DHT22;9435;52.122;5.502;2022-08-19T07:01:25;19.30;99.90
18611;DHT22;9435;52.122;5.502;2022-08-19T07:03:52;19.30;99.90
18611;DHT22;9435;52.122;5.502;2022-08-19T07:06:20;19.30;99.90
18611;DHT22;9435;52.122;5.502;2022-08-19T07:08:47;19.30;99.90
18611;DHT22;9435;52.122;5.502;2022-08-19T07:11:17;19.30;99.90
18611;DHT22;9435;52.122;5.502;2022-08-19T07:13:45;19.30;99.90
18611;DHT22;9435;52.122;5.502;2022-08-19T07:16:17;19.20;99.90
18611;DHT22;9435;52.122;5.502;2022-08-19T07:18:45;19.20;99.90
18611;DHT22;9435;52.122;5.502;2022-08-19T07:21:18;19.20;99.90
18611;DHT22;9435;52.122;5.502;2022-08-19T07:23:45;19.20;99.90
18611;DHT22;9435;52.122;5.502;2022-08-19T07:26:22;19.20;99.90
18611;DHT22;9435;52.122;5.502;2022-08-19T07:28:49;19.20;99.90
18611;DHT22;9435;52.122;5.502;2022-08-19T07:31:22;19.20;99.90
18611;DHT22;9435;52.122;5.502;2022-08-19T07:33:51;19.20;99.90
18611;DHT22;9435;52.122;5.502;2022-08-19T07:36:23;19.20;99.90
18611;DHT22;9435;52.122;5.502;2022-08-19T07:38:51;19.30;99.90
18611;DHT22;9435;52.122;5.502;2022-08-19T07:41:23;19.30;99.90
18611;DHT22;9435;52.122;5.502;2022-08-19T07:43:50;19.30;99.90
18611;DHT22;9435;52.122;5.502;2022-08-19T07:46:20;19.30;99.90
18611;DHT22;9435;52.122;5.502;2022-08-19T07:48:49;19.40;99.90
18611;DHT22;9435;52.122;5.502;2022-08-19T07:51:19;19.40;99.90
18611;DHT22;9435;52.122;5.502;2022-08-19T07:53:47;19.50;99.90
18611;DHT22;9435;52.122;5.502;2022-08-19T07:56:17;19.50;99.90
18611;DHT22;9435;52.122;5.502;2022-08-19T07:58:46;19.60;99.90
18611;DHT22;9435;52.122;5.502;2022-08-19T08:01:16;19.70;99.90
18611;DHT22;9435;52.122;5.502;2022-08-19T08:03:45;19.70;99.90
18611;DHT22;9435;52.122;5.502;2022-08-19T08:06:30;19.80;99.90
18611;DHT22;9435;52.122;5.502;2022-08-19T08:09:18;19.90;99.90
18611;DHT22;9435;52.122;5.502;2022-08-19T08:11:50;20.00;99.90
18611;DHT22;9435;52.122;5.502;2022-08-19T08:14:19;20.00;99.90
18611;DHT22;9435;52.122;5.502;2022-08-19T08:16:47;20.00;99.90
18611;DHT22;9435;52.122;5.502;2022-08-19T08:19:18;20.10;99.90
18611;DHT22;9435;52.122;5.502;2022-08-19T08:21:46;20.10;99.90
18611;DHT22;9435;52.122;5.502;2022-08-19T08:24:13;20.10;99.90
18611;DHT22;9435;52.122;5.502;2022-08-19T08:26:40;20.20;99.90
18611;DHT22;9435;52.122;5.502;2022-08-19T08:29:08;20.10;99.90
18611;DHT22;9435;52.122;5.502;2022-08-19T08:31:39;20.20;99.90
18611;DHT22;9435;52.122;5.502;2022-08-19T08:34:06;20.30;99.90
18611;DHT22;9435;52.122;5.502;2022-08-19T08:36:37;20.40;99.90
18611;DHT22;9435;52.122;5.502;2022-08-19T08:39:07;20.50;99.90
18611;DHT22;9435;52.122;5.502;2022-08-19T08:41:39;20.60;99.90
18611;DHT22;9435;52.122;5.502;2022-08-19T08:44:22;20.70;99.90
18611;DHT22;9435;52.122;5.502;2022-08-19T08:46:52;20.70;99.90
18611;DHT22;9435;52.122;5.502;2022-08-19T08:49:28;20.70;99.90
18611;DHT22;9435;52.122;5.502;2022-08-19T08:52:03;20.70;99.90
18611;DHT22;9435;52.122;5.502;2022-08-19T08:54:34;20.80;99.90
18611;DHT22;9435;52.122;5.502;2022-08-19T08:57:05;20.80;99.90
18611;DHT22;9435;52.122;5.502;2022-08-19T08:59:37;21.10;99.90
18611;DHT22;9435;52.122;5.502;2022-08-19T09:02:06;21.30;99.90
18611;DHT22;9435;52.122;5.502;2022-08-19T09:04:34;21.50;99.90
18611;DHT22;9435;52.122;5.502;2022-08-19T09:07:20;21.70;99.90
18611;DHT22;9435;52.122;5.502;2022-08-19T09:09:51;21.70;99.90
18611;DHT22;9435;52.122;5.502;2022-08-19T09:12:23;21.70;99.90
18611;DHT22;9435;52.122;5.502;2022-08-19T09:14:56;21.70;99.90
18611;DHT22;9435;52.122;5.502;2022-08-19T09:17:28;21.80;99.90
18611;DHT22;9435;52.122;5.502;2022-08-19T09:20:00;22.20;99.90
18611;DHT22;9435;52.122;5.502;2022-08-19T09:22:31;22.50;99.90
18611;DHT22;9435;52.122;5.502;2022-08-19T09:24:59;22.80;99.90
18611;DHT22;9435;52.122;5.502;2022-08-19T09:27:27;23.10;99.90
18611;DHT22;9435;52.122;5.502;2022-08-19T09:29:54;23.20;99.90
18611;DHT22;9435;52.122;5.502;2022-08-19T09:32:22;23.40;99.90
18611;DHT22;9435;52.122;5.502;2022-08-19T09:34:49;23.40;99.90
18611;DHT22;9435;52.122;5.502;2022-08-19T09:37:18;23.50;99.90
18611;DHT22;9435;52.122;5.502;2022-08-19T09:39:47;23.70;99.90
18611;DHT22;9435;52.122;5.502;2022-08-19T09:42:14;23.70;99.90
18611;DHT22;9435;52.122;5.502;2022-08-19T09:44:42;23.90;99.90
18611;DHT22;9435;52.122;5.502;2022-08-19T09:47:11;24.10;99.90
18611;DHT22;9435;52.122;5.502;2022-08-19T09:49:38;23.80;99.90
18611;DHT22;9435;52.122;5.502;2022-08-19T09:52:06;23.80;99.90
18611;DHT22;9435;52.122;5.502;2022-08-19T09:54:33;23.70;99.90
18611;DHT22;9435;52.122;5.502;2022-08-19T09:57:01;23.50;99.90
18611;DHT22;9435;52.122;5.502;2022-08-19T09:59:29;23.50;99.90
18611;DHT22;9435;52.122;5.502;2022-08-19T10:01:56;23.60;99.90
18611;DHT22;9435;52.122;5.502;2022-08-19T10:04:23;23.60;99.90
18611;DHT22;9435;52.122;5.502;2022-08-19T10:07:10;23.50;99.90
18611;DHT22;9435;52.122;5.502;2022-08-19T10:09:37;23.50;99.90
18611;DHT22;9435;52.122;5.502;2022-08-19T10:12:08;23.70;99.90
18611;DHT22;9435;52.122;5.502;2022-08-19T10:14:35;23.90;99.90
18611;DHT22;9435;52.122;5.502;2022-08-19T10:17:02;24.00;99.90
18611;DHT22;9435;52.122;5.502;2022-08-19T10:19:29;23.80;99.90
18611;DHT22;9435;52.122;5.502;2022-08-19T10:22:03;23.70;99.90
18611;DHT22;9435;52.122;5.502;2022-08-19T10:24:30;24.00;99.90
18611;DHT22;9435;52.122;5.502;2022-08-19T10:26:57;24.40;99.90
18611;DHT22;9435;52.122;5.502;2022-08-19T10:29:26;24.70;99.90
18611;DHT22;9435;52.122;5.502;2022-08-19T10:31:54;24.80;99.90
18611;DHT22;9435;52.122;5.502;2022-08-19T10:34:21;24.90;99.90
18611;DHT22;9435;52.122;5.502;2022-08-19T10:36:48;25.10;99.90
18611;DHT22;9435;52.122;5.502;2022-08-19T10:39:16;25.20;99.90
18611;DHT22;9435;52.122;5.502;2022-08-19T10:41:43;25.50;99.90
18611;DHT22;9435;52.122;5.502;2022-08-19T10:44:12;25.40;99.90
18611;DHT22;9435;52.122;5.502;2022-08-19T10:46:42;25.20;99.90
18611;DHT22;9435;52.122;5.502;2022-08-19T10:49:10;25.30;99.90
18611;DHT22;9435;52.122;5.502;2022-08-19T10:51:38;25.00;99.90
18611;DHT22;9435;52.122;5.502;2022-08-19T10:54:22;25.20;99.90
18611;DHT22;9435;52.122;5.502;2022-08-19T10:57:09;25.40;99.90
18611;DHT22;9435;52.122;5.502;2022-08-19T10:59:35;25.60;99.90
18611;DHT22;9435;52.122;5.502;2022-08-19T11:02:06;26.00;99.90
18611;DHT22;9435;52.122;5.502;2022-08-19T11:04:35;26.00;99.90
18611;DHT22;9435;52.122;5.502;2022-08-19T11:07:03;26.20;99.90
18611;DHT22;9435;52.122;5.502;2022-08-19T11:09:31;26.30;99.90
18611;DHT22;9435;52.122;5.502;2022-08-19T11:11:58;26.10;99.90
18611;DHT22;9435;52.122;5.502;2022-08-19T11:14:25;26.00;99.90
18611;DHT22;9435;52.122;5.502;2022-08-19T11:16:56;26.00;99.90
18611;DHT22;9435;52.122;5.502;2022-08-19T11:19:25;25.90;99.90
18611;DHT22;9435;52.122;5.502;2022-08-19T11:21:52;25.70;99.90
18611;DHT22;9435;52.122;5.502;2022-08-19T11:24:22;25.70;99.90
18611;DHT22;9435;52.122;5.502;2022-08-19T11:26:51;25.70;99.90
18611;DHT22;9435;52.122;5.502;2022-08-19T11:29:21;25.60;99.90
18611;DHT22;9435;52.122;5.502;2022-08-19T11:31:52;26.10;99.90
18611;DHT22;9435;52.122;5.502;2022-08-19T11:34:22;26.00;99.90
18611;DHT22;9435;52.122;5.502;2022-08-19T11:36:51;26.00;99.90
18611;DHT22;9435;52.122;5.502;2022-08-19T11:39:21;26.10;99.90
18611;DHT22;9435;52.122;5.502;2022-08-19T11:41:49;26.00;99.90
18611;DHT22;9435;52.122;5.502;2022-08-19T11:44:16;26.30;99.90
18611;DHT22;9435;52.122;5.502;2022-08-19T11:46:45;26.50;99.90
18611;DHT22;9435;52.122;5.502;2022-08-19T11:49:13;26.70;99.90
18611;DHT22;9435;52.122;5.502;2022-08-19T11:51:41;26.90;99.90
18611;DHT22;9435;52.122;5.502;2022-08-19T11:54:15;26.60;99.90
18611;DHT22;9435;52.122;5.502;2022-08-19T11:56:43;26.50;99.90
18611;DHT22;9435;52.122;5.502;2022-08-19T11:59:10;26.20;99.90
18611;DHT22;9435;52.122;5.502;2022-08-19T12:01:37;26.10;99.90
18611;DHT22;9435;52.122;5.502;2022-08-19T12:04:06;26.30;99.90
18611;DHT22;9435;52.122;5.502;2022-08-19T12:06:33;26.50;99.90
18611;DHT22;9435;52.122;5.502;2022-08-19T12:09:03;26.50;99.90
18611;DHT22;9435;52.122;5.502;2022-08-19T12:11:31;26.40;99.90
18611;DHT22;9435;52.122;5.502;2022-08-19T12:13:58;26.40;99.90
18611;DHT22;9435;52.122;5.502;2022-08-19T12:16:27;26.50;99.90
18611;DHT22;9435;52.122;5.502;2022-08-19T12:18:55;26.50;99.90
18611;DHT22;9435;52.122;5.502;2022-08-19T12:21:25;26.30;99.90
18611;DHT22;9435;52.122;5.502;2022-08-19T12:23:55;26.20;99.90
18611;DHT22;9435;52.122;5.502;2022-08-19T12:26:23;26.30;99.90
18611;DHT22;9435;52.122;5.502;2022-08-19T12:28:52;26.40;99.90
18611;DHT22;9435;52.122;5.502;2022-08-19T12:31:19;26.30;99.90
18611;DHT22;9435;52.122;5.502;2022-08-19T12:33:46;26.20;99.90
18611;DHT22;9435;52.122;5.502;2022-08-19T12:36:15;26.00;99.90
18611;DHT22;9435;52.122;5.502;2022-08-19T12:38:43;25.90;99.90
18611;DHT22;9435;52.122;5.502;2022-08-19T12:41:13;25.60;99.90
18611;DHT22;9435;52.122;5.502;2022-08-19T12:43:41;25.60;99.90
18611;DHT22;9435;52.122;5.502;2022-08-19T12:46:10;25.50;99.90
18611;DHT22;9435;52.122;5.502;2022-08-19T12:48:38;25.30;99.90
18611;DHT22;9435;52.122;5.502;2022-08-19T12:51:08;25.10;99.90
18611;DHT22;9435;52.122;5.502;2022-08-19T12:53:35;25.10;99.90
18611;DHT22;9435;52.122;5.502;2022-08-19T12:56:03;25.00;99.90
18611;DHT22;9435;52.122;5.502;2022-08-19T12:58:30;24.90;99.90
18611;DHT22;9435;52.122;5.502;2022-08-19T13:01:00;25.00;99.90
18611;DHT22;9435;52.122;5.502;2022-08-19T13:03:28;24.90;99.90
18611;DHT22;9435;52.122;5.502;2022-08-19T13:05:56;25.10;99.90
18611;DHT22;9435;52.122;5.502;2022-08-19T13:08:23;25.00;99.90
18611;DHT22;9435;52.122;5.502;2022-08-19T13:10:50;25.10;99.90
18611;DHT22;9435;52.122;5.502;2022-08-19T13:13:17;25.20;99.90
18611;DHT22;9435;52.122;5.502;2022-08-19T13:15:44;25.20;99.90
18611;DHT22;9435;52.122;5.502;2022-08-19T13:18:12;25.10;99.90
18611;DHT22;9435;52.122;5.502;2022-08-19T13:20:41;25.10;99.90
18611;DHT22;9435;52.122;5.502;2022-08-19T13:23:08;25.00;99.90
18611;DHT22;9435;52.122;5.502;2022-08-19T13:25:35;24.90;99.90
18611;DHT22;9435;52.122;5.502;2022-08-19T13:28:03;24.90;99.90
18611;DHT22;9435;52.122;5.502;2022-08-19T13:30:32;24.70;99.90
18611;DHT22;9435;52.122;5.502;2022-08-19T13:33:28;24.40;99.90
18611;DHT22;9435;52.122;5.502;2022-08-19T13:35:59;23.80;99.90
18611;DHT22;9435;52.122;5.502;2022-08-19T13:38:26;23.70;99.90
18611;DHT22;9435;52.122;5.502;2022-08-19T13:40:54;23.50;99.90
18611;DHT22;9435;52.122;5.502;2022-08-19T13:43:25;23.50;99.90
18611;DHT22;9435;52.122;5.502;2022-08-19T13:45:54;23.40;99.90
18611;DHT22;9435;52.122;5.502;2022-08-19T13:48:22;23.30;99.90
18611;DHT22;9435;52.122;5.502;2022-08-19T13:50:49;23.40;99.90
18611;DHT22;9435;52.122;5.502;2022-08-19T13:53:18;23.40;99.90
18611;DHT22;9435;52.122;5.502;2022-08-19T13:55:45;23.40;99.90
18611;DHT22;9435;52.122;5.502;2022-08-19T13:58:13;23.20;99.90
18611;DHT22;9435;52.122;5.502;2022-08-19T14:00:43;23.00;99.90
18611;DHT22;9435;52.122;5.502;2022-08-19T14:03:10;23.00;99.90
18611;DHT22;9435;52.122;5.502;2022-08-19T14:05:38;23.00;99.90
18611;DHT22;9435;52.122;5.502;2022-08-19T14:08:05;22.90;99.90
18611;DHT22;9435;52.122;5.502;2022-08-19T14:10:34;22.90;99.90
18611;DHT22;9435;52.122;5.502;2022-08-19T14:13:02;22.60;99.90
18611;DHT22;9435;52.122;5.502;2022-08-19T14:15:29;22.40;99.90
18611;DHT22;9435;52.122;5.502;2022-08-19T14:17:57;22.30;99.90
18611;DHT22;9435;52.122;5.502;2022-08-19T14:20:25;22.20;99.90
18611;DHT22;9435;52.122;5.502;2022-08-19T14:22:53;22.10;99.90
18611;DHT22;9435;52.122;5.502;2022-08-19T14:25:22;22.20;99.90
18611;DHT22;9435;52.122;5.502;2022-08-19T14:27:51;22.20;99.90
18611;DHT22;9435;52.122;5.502;2022-08-19T14:30:21;22.20;99.90
18611;DHT22;9435;52.122;5.502;2022-08-19T14:32:48;22.20;99.90
18611;DHT22;9435;52.122;5.502;2022-08-19T14:35:16;22.10;99.90
18611;DHT22;9435;52.122;5.502;2022-08-19T14:37:44;22.00;99.90
18611;DHT22;9435;52.122;5.502;2022-08-19T14:40:12;21.90;99.90
18611;DHT22;9435;52.122;5.502;2022-08-19T14:42:39;21.90;99.90
18611;DHT22;9435;52.122;5.502;2022-08-19T14:45:10;21.80;99.90
18611;DHT22;9435;52.122;5.502;2022-08-19T14:47:39;21.80;99.90
18611;DHT22;9435;52.122;5.502;2022-08-19T14:50:07;21.80;99.90
18611;DHT22;9435;52.122;5.502;2022-08-19T14:52:34;21.90;99.90
18611;DHT22;9435;52.122;5.502;2022-08-19T14:55:02;21.90;99.90
18611;DHT22;9435;52.122;5.502;2022-08-19T14:57:29;22.10;99.90
18611;DHT22;9435;52.122;5.502;2022-08-19T14:59:56;22.30;99.90
18611;DHT22;9435;52.122;5.502;2022-08-19T15:02:25;22.40;99.90
18611;DHT22;9435;52.122;5.502;2022-08-19T15:04:51;22.40;99.90
18611;DHT22;9435;52.122;5.502;2022-08-19T15:07:21;22.40;99.90
18611;DHT22;9435;52.122;5.502;2022-08-19T15:09:49;22.40;99.90
18611;DHT22;9435;52.122;5.502;2022-08-19T15:12:16;22.60;99.90
18611;DHT22;9435;52.122;5.502;2022-08-19T15:14:43;22.60;99.90
18611;DHT22;9435;52.122;5.502;2022-08-19T15:17:15;22.60;99.90
18611;DHT22;9435;52.122;5.502;2022-08-19T15:19:44;22.70;99.90
18611;DHT22;9435;52.122;5.502;2022-08-19T15:22:11;22.60;99.90
18611;DHT22;9435;52.122;5.502;2022-08-19T15:24:39;22.70;99.90
18611;DHT22;9435;52.122;5.502;2022-08-19T15:27:08;22.60;99.90
18611;DHT22;9435;52.122;5.502;2022-08-19T15:29:35;22.70;99.90
18611;DHT22;9435;52.122;5.502;2022-08-19T15:32:03;22.60;99.90
18611;DHT22;9435;52.122;5.502;2022-08-19T15:34:31;22.60;99.90
18611;DHT22;9435;52.122;5.502;2022-08-19T15:37:00;22.70;99.90
18611;DHT22;9435;52.122;5.502;2022-08-19T15:39:29;22.80;99.90
18611;DHT22;9435;52.122;5.502;2022-08-19T15:41:56;22.80;99.90
18611;DHT22;9435;52.122;5.502;2022-08-19T15:44:25;22.80;99.90
18611;DHT22;9435;52.122;5.502;2022-08-19T15:46:52;22.80;99.90
18611;DHT22;9435;52.122;5.502;2022-08-19T15:49:19;23.00;99.90
18611;DHT22;9435;52.122;5.502;2022-08-19T15:51:48;23.10;99.90
18611;DHT22;9435;52.122;5.502;2022-08-19T15:54:19;23.10;99.90
18611;DHT22;9435;52.122;5.502;2022-08-19T15:56:47;23.20;99.90